< < Back
Terminal Aerodrome Forecast


Current Version              Previous Versions:   1  2  3  4  5  6  7  8  9  

Terminal Aerodrome Forecast

911
FTUS42 KTAE 202300
TAFVLD
TAF
KVLD 202334Z 2100/2124 03007KT P6SM BKN025
     FM210200 03005KT P6SM BKN040
     FM210800 03005KT P6SM SKC
     FM211500 03008KT P6SM FEW200=

Latest METAR

493
SAUS70 KWBC 211200 RRA
MTRVLD
METAR KVLD 211153Z 00000KT 7SM CLR 14/11 A3013 RMK AO2 SLP210 60001
70001 T01390106 10139 20106 53008


USA.gov is the U.S. government's official web portal to all federal, state and local government web resources and services.